Flight Track Log - Related Links

Times and Time Zones

All times are in EDT time to prevent confusion due to time zone crossing. See the UAL3767 flight status page for this flight to view local times or setup timezone preferences in your user account.

Time Position Orientation Groundspeed Altitude Reporting Facility
EDT Latitude Longitude Course Direction KTS MPH feet Rate Location/Type
Wed 06:02:51 AM 44.4061 -73.3003 258° West 258 297 6,100  Level Boston Center
Wed 06:03:00 AM 44.3605 -73.7431 259° West  Level FlightAware Approximate
Wed 06:03:51 AM 44.3886 -73.4103 257° West 287 330 9,100  Level Boston Center
Wed 06:04:00 AM 44.3391 -73.8931 259° West  Level FlightAware Approximate
Wed 06:04:51 AM 44.3731 -73.5147 258° West 301 346 11,300  Level Boston Center
Wed 06:05:00 AM 44.3129 -74.0416 255° West  Level FlightAware Approximate
Wed 06:05:51 AM 44.3531 -73.6392 257° West 328 377 13,700  Level Boston Center
Wed 06:06:00 AM 44.2847 -74.1893 255° West  Level FlightAware Approximate
Wed 06:06:51 AM 44.3306 -73.7839 258° West 344 396 16,000  Level Boston Center
Wed 06:07:00 AM 44.2584 -74.3376 258° West  Level FlightAware Approximate
Wed 06:07:51 AM 44.3100 -73.9225 258° West 358 412 18,100  Level Boston Center
Wed 06:08:00 AM 44.2354 -74.4869 258° West  Level FlightAware Approximate
Wed 06:08:51 AM 44.2875 -74.0642 258° West 363 418 20,000  Level Boston Center
Wed 06:09:51 AM 44.2711 -74.1797 259° West 374 430 21,400 1,700 Climbing Boston Center
Wed 06:10:51 AM 44.2411 -74.3556 257° West 381 438 23,400 1,750 Climbing Boston Center
Wed 06:11:51 AM 44.2158 -74.5053 257° West 397 457 24,900 1,450 Climbing Boston Center
Wed 06:12:51 AM 44.1897 -74.6639 257° West 409 471 26,300 1,350 Climbing Boston Center
Wed 06:13:51 AM 44.1658 -74.8219 258° West 419 482 27,600 1,200 Climbing Boston Center
Wed 06:14:51 AM 44.1394 -74.9831 257° West 424 488 28,700 1,050 Climbing Boston Center
Wed 06:15:51 AM 44.1128 -75.1467 257° West 435 501 29,700 950 Climbing Boston Center
Wed 06:16:51 AM 44.0856 -75.3189 258° West 445 512 30,600 900 Climbing Boston Center
Wed 06:17:51 AM 44.0542 -75.4881 256° West 445 512 31,500 900 Climbing Boston Center
Wed 06:18:51 AM 44.0267 -75.6569 257° West 445 512 32,400 900 Climbing Boston Center
Wed 06:19:51 AM 43.9967 -75.8344 257° West 457 526 33,300 900 Climbing Boston Center
Wed 06:20:51 AM 43.9664 -76.0028 256° West 462 532 34,200 900 Climbing Boston Center
Wed 06:21:51 AM 43.9464 -76.1775 261° West 462 532 35,100 800 Climbing Boston Center
Wed 06:22:51 AM 43.9300 -76.3525 263° West 467 537 35,800 450 Climbing Boston Center
Wed 06:23:51 AM 43.9153 -76.5361 264° West 467 537 36,000 110 Climbing Boston Center
Wed 06:24:40 AM 43.9000 -76.6667 261° West 480 552 36,000  Level Toronto Center
Wed 06:25:40 AM 43.8667 -76.8333 255° West 490 564 36,000  Level Toronto Center
Wed 06:26:40 AM 43.8500 -77.0167 263° West 480 552 36,000  Level Toronto Center
Wed 06:27:40 AM 43.8333 -77.2000 263° West 480 552 36,000  Level Toronto Center
Wed 06:28:40 AM 43.8167 -77.3833 263° West 480 552 36,000  Level Toronto Center
Wed 06:29:40 AM 43.8000 -77.5833 263° West 480 552 36,000  Level Toronto Center
Wed 06:30:40 AM 43.7833 -77.7667 263° West 480 552 36,000  Level Toronto Center
Wed 06:31:40 AM 43.7500 -77.9500 256° West 480 552 36,000  Level Toronto Center
Wed 06:32:40 AM 43.7333 -78.1333 263° West 480 552 36,000  Level Toronto Center
Wed 06:33:40 AM 43.7167 -78.3167 263° West 480 552 36,000  Level Toronto Center
Wed 06:34:40 AM 43.7167 -78.5000 270° West 490 564 36,000  Level Toronto Center
Wed 06:35:40 AM 43.6833 -78.6833 256° West 490 564 36,000  Level Toronto Center
Wed 06:36:40 AM 43.6667 -78.8667 263° West 490 564 36,000  Level Toronto Center
Wed 06:37:40 AM 43.6500 -79.0500 263° West 490 564 36,000  Level Toronto Center
Wed 06:38:40 AM 43.6333 -79.2333 263° West 490 564 36,000  Level Toronto Center
Wed 06:39:40 AM 43.6167 -79.4333 264° West 480 552 36,000  Level Toronto Center
Wed 06:40:40 AM 43.6000 -79.6167 263° West 490 564 36,000  Level Toronto Center
Wed 06:41:40 AM 43.5833 -79.8000 263° West 490 564 36,000  Level Toronto Center
Wed 06:42:40 AM 43.5500 -79.9833 256° West 480 552 36,000  Level Toronto Center
Wed 06:43:40 AM 43.5333 -80.1667 263° West 480 552 36,000  Level Toronto Center
Wed 06:44:40 AM 43.5167 -80.3500 263° West 480 552 36,000  Level Toronto Center
Wed 06:45:40 AM 43.5000 -80.5333 263° West 480 552 36,000  Level Toronto Center
Wed 06:46:40 AM 43.4833 -80.7167 263° West 480 552 36,000  Level Toronto Center
Wed 06:47:40 AM 43.4500 -80.9000 256° West 480 552 36,000  Level Toronto Center
Wed 06:48:40 AM 43.4333 -81.0833 263° West 480 552 36,000  Level Toronto Center
Wed 06:49:40 AM 43.4167 -81.2667 263° West 470 541 36,000  Level Toronto Center
Wed 06:50:40 AM 43.4000 -81.4167 261° West 470 541 36,000  Level Toronto Center
Wed 06:51:40 AM 43.3333 -81.5833 241° Southwest 450 518 36,000  Level Toronto Center
Wed 06:52:40 AM 43.2500 -81.6667 216° Southwest 430 495 36,000  Level Toronto Center
Wed 06:53:40 AM 43.1500 -81.7833 220° Southwest 430 495 36,000  Level Toronto Center
Wed 06:54:40 AM 43.0833 -81.9167 236° Southwest 450 518 36,000  Level Toronto Center
Wed 06:55:40 AM 43.0833 -82.1000 270° West 460 529 36,000  Level Toronto Center
Wed 06:56:40 AM 43.0667 -82.2833 263° West 470 541 36,000  Level Toronto Center
Wed 06:57:40 AM 43.0500 -82.4667 263° West 460 529 36,000  Level Toronto Center
Wed 06:58:40 AM 43.0500 -82.6167 270° West 460 529 36,000  Level Toronto Center
Wed 06:59:21 AM 43.0461 -82.7592 268° West 462 532 36,000  Level Cleveland Center
Wed 07:00:21 AM 43.0303 -82.9264 263° West 457 526 36,000  Level Cleveland Center
Wed 07:01:21 AM 43.0183 -83.0964 265° West 457 526 36,000  Level Cleveland Center
Wed 07:02:21 AM 43.0042 -83.2689 264° West 457 526 36,000  Level Cleveland Center
Wed 07:03:21 AM 42.9917 -83.4414 264° West 462 532 36,000  Level Cleveland Center
Wed 07:04:21 AM 42.9769 -83.6139 263° West 462 532 36,000  Level Cleveland Center
Wed 07:05:21 AM 42.9639 -83.7836 264° West 462 532 36,000  Level Cleveland Center
Wed 07:06:21 AM 42.9467 -83.9531 262° West 462 532 36,000  Level Cleveland Center
Wed 07:07:21 AM 42.9289 -84.1222 262° West 462 532 36,000 -500 Level Cleveland Center
Wed 07:08:21 AM 42.9114 -84.2883 262° West 457 526 35,000 -1,446 Descending Cleveland Center
Wed 07:09:13 AM 42.9003 -84.4242 264° West 449 517 33,300 -1,593 Descending Chicago Center
Wed 07:10:14 AM 42.8833 -84.5911 262° West 445 512 32,000 -639 Descending Chicago Center
Wed 07:11:15 AM 42.8661 -84.7611 262° West 453 521 32,000  Level Chicago Center
Wed 07:12:16 AM 42.8478 -84.9306 262° West 453 521 32,000  Level Chicago Center
Wed 07:13:17 AM 42.8311 -85.0975 262° West 447 514 32,000 -197 Level Chicago Center
Wed 07:14:18 AM 42.8119 -85.2675 261° West 453 521 31,600 -1,475 Descending Chicago Center
Wed 07:15:19 AM 42.7931 -85.4411 262° West 461 531 29,000 -2,508 Descending Chicago Center
Wed 07:16:20 AM 42.7675 -85.6028 258° West 441 507 26,500 -2,439 Descending Chicago Center
Wed 07:17:22 AM 42.7389 -85.7633 256° West 434 499 24,000 -2,439 Descending Chicago Center
Wed 07:18:23 AM 42.7092 -85.9228 256° West 433 498 21,500 -1,967 Descending Chicago Center
Wed 07:19:24 AM 42.6819 -86.0767 257° West 422 486 20,000 -738 Descending Chicago Center
Wed 07:20:25 AM 42.6494 -86.2519 256° West 403 464 20,000  Level Chicago Center
Wed 07:21:27 AM 42.6222 -86.3958 256° West 394 453 20,000  Level Chicago Center
Wed 07:22:28 AM 42.5950 -86.5422 256° West 399 459 20,000 -443 Level Chicago Center
Wed 07:23:29 AM 42.5672 -86.6856 255° West 395 455 19,100 -1,415 Descending Chicago Center
Wed 07:24:31 AM 42.5344 -86.8292 253° West 399 459 17,100 -2,000 Descending Chicago Center
Wed 07:25:32 AM 42.4950 -86.9694 249° West 395 455 15,000 -2,016 Descending Chicago Center
Wed 07:26:33 AM 42.4592 -87.0992 250° West 370 426 13,000 -1,951 Descending Chicago Center
Wed 07:27:35 AM 42.4247 -87.2244 250° West 359 413 11,000 -1,452 Descending Chicago Center
Wed 07:28:37 AM 42.3914 -87.3469 250° West 349 402 10,000 -488 Descending Chicago Center
Wed 07:29:38 AM 42.3525 -87.4861 249° West 343 395 10,000  Level Chicago Center
Wed 07:30:40 AM 42.2917 -87.5828 230° Southwest 342 394 10,000  Level Chicago Center
Wed 07:31:41 AM 42.2158 -87.6642 218° Southwest 348 400 10,000  Level Chicago Center
Wed 07:32:43 AM 42.1397 -87.7447 218° Southwest 348 400 10,000 -231 Level Chicago Center
Wed 07:32:59 AM 42.1167 -87.7667 215° Southwest 303 349 9,700 -1,579 Descending Chicago TRACON
Wed 07:33:59 AM 42.1000 -87.8667 257° West 286 329 8,000 -1,350 Descending Chicago TRACON
Wed 07:34:59 AM 42.1000 -87.9667 270° West 274 315 7,000 -556 Descending Chicago TRACON
Wed 07:35:47 AM 42.1000 -88.0500 270° West 211 243 7,000 -165 Level Chicago TRACON
Wed 07:36:48 AM 42.0833 -88.1167 251° West 185 213 6,700 -893 Descending Chicago TRACON
Wed 07:37:48 AM 42.0833 -88.1833 270° West 185 213 5,200 -1,210 Descending Chicago TRACON
Wed 07:38:52 AM 42.0758 -88.2364 259° West 196 226 4,200 -571 Descending Chicago Center
Wed 07:39:54 AM 42.0244 -88.2256 171° South 188 216 4,000 -98 Descending Chicago Center
Wed 07:40:55 AM 41.9872 -88.1900 145° Southeast 195 224 4,000 -146 Level Chicago Center
Wed 07:41:57 AM 41.9664 -88.1181 111° Southeast 173 199 3,700 -617 Descending Chicago Center
Wed 07:42:42 AM 41.9667 -88.0667 90° East 172 198 2,900 -1,067 Descending Chicago TRACON

Login

Don't have an account? Register now (free) for customized features, flight alerts, and more!